sensor_id;sensor_type;location;lat;lon;timestamp;pressure;altitude;pressure_sealevel;temperature;humidity
5053;BME280;2545;50.892;5.740;2022-09-29T00:02:12;56325.84;;;-142.21;100.00
5053;BME280;2545;50.892;5.740;2022-09-29T00:04:37;56314.06;;;-142.21;100.00
5053;BME280;2545;50.892;5.740;2022-09-29T00:07:02;56290.53;;;-142.21;100.00
5053;BME280;2545;50.892;5.740;2022-09-29T00:09:28;56306.22;;;-142.21;100.00
5053;BME280;2545;50.892;5.740;2022-09-29T00:11:54;56314.06;;;-142.21;100.00
5053;BME280;2545;50.892;5.740;2022-09-29T00:14:20;56298.38;;;-142.21;100.00
5053;BME280;2545;50.892;5.740;2022-09-29T00:16:46;56296.41;;;-142.21;100.00
5053;BME280;2545;50.892;5.740;2022-09-29T00:19:12;56298.38;;;-142.21;100.00
5053;BME280;2545;50.892;5.740;2022-09-29T00:21:37;56298.38;;;-142.21;100.00
5053;BME280;2545;50.892;5.740;2022-09-29T00:24:03;56286.63;;;-142.21;100.00
5053;BME280;2545;50.892;5.740;2022-09-29T00:26:29;56319.94;;;-142.21;100.00
5053;BME280;2545;50.892;5.740;2022-09-29T00:28:57;56302.28;;;-142.21;100.00
5053;BME280;2545;50.892;5.740;2022-09-29T00:31:24;56270.91;;;-142.21;100.00
5053;BME280;2545;50.892;5.740;2022-09-29T00:33:50;56316.03;;;-142.21;100.00
5053;BME280;2545;50.892;5.740;2022-09-29T00:36:18;56259.16;;;-142.21;100.00
5053;BME280;2545;50.892;5.740;2022-09-29T00:38:45;56296.41;;;-142.21;100.00
5053;BME280;2545;50.892;5.740;2022-09-29T00:41:19;56353.28;;;-142.21;100.00
5053;BME280;2545;50.892;5.740;2022-09-29T00:49:10;56300.34;;;-142.21;100.00
5053;BME280;2545;50.892;5.740;2022-09-29T00:51:38;56268.97;;;-142.21;100.00
5053;BME280;2545;50.892;5.740;2022-09-29T00:54:07;56308.19;;;-142.21;100.00
5053;BME280;2545;50.892;5.740;2022-09-29T00:56:33;56272.88;;;-142.21;100.00
5053;BME280;2545;50.892;5.740;2022-09-29T00:59:02;56312.09;;;-142.21;100.00
5053;BME280;2545;50.892;5.740;2022-09-29T01:01:30;56331.72;;;-142.21;100.00
5053;BME280;2545;50.892;5.740;2022-09-29T01:03:59;56302.28;;;-142.21;100.00
5053;BME280;2545;50.892;5.740;2022-09-29T01:06:35;56331.72;;;-142.21;100.00
5053;BME280;2545;50.892;5.740;2022-09-29T01:09:08;56304.25;;;-142.21;100.00
5053;BME280;2545;50.892;5.740;2022-09-29T01:11:34;56329.75;;;-142.21;100.00
5053;BME280;2545;50.892;5.740;2022-09-29T01:14:02;56300.34;;;-142.21;100.00
5053;BME280;2545;50.892;5.740;2022-09-29T01:16:30;56327.78;;;-142.21;100.00
5053;BME280;2545;50.892;5.740;2022-09-29T01:18:57;56280.72;;;-142.21;100.00
5053;BME280;2545;50.892;5.740;2022-09-29T01:24:19;56304.25;;;-142.21;100.00
5053;BME280;2545;50.892;5.740;2022-09-29T01:29:44;56312.09;;;-142.21;100.00
5053;BME280;2545;50.892;5.740;2022-09-29T01:35:19;56343.47;;;-142.21;100.00
5053;BME280;2545;50.892;5.740;2022-09-29T01:41:02;56300.34;;;-142.21;100.00
5053;BME280;2545;50.892;5.740;2022-09-29T01:43:36;56319.94;;;-142.21;100.00
5053;BME280;2545;50.892;5.740;2022-09-29T01:46:12;56310.13;;;-142.21;100.00
5053;BME280;2545;50.892;5.740;2022-09-29T01:48:44;56323.88;;;-142.21;100.00
5053;BME280;2545;50.892;5.740;2022-09-29T01:51:15;56341.53;;;-142.21;100.00
5053;BME280;2545;50.892;5.740;2022-09-29T01:53:50;56304.25;;;-142.21;100.00
5053;BME280;2545;50.892;5.740;2022-09-29T01:56:27;56351.31;;;-142.21;100.00
5053;BME280;2545;50.892;5.740;2022-09-29T01:59:08;56316.03;;;-142.21;100.00
5053;BME280;2545;50.892;5.740;2022-09-29T02:01:37;56335.63;;;-142.21;100.00
5053;BME280;2545;50.892;5.740;2022-09-29T02:04:36;56319.94;;;-142.21;100.00
5053;BME280;2545;50.892;5.740;2022-09-29T02:07:06;56306.22;;;-142.21;100.00
5053;BME280;2545;50.892;5.740;2022-09-29T02:09:38;56308.19;;;-142.21;100.00
5053;BME280;2545;50.892;5.740;2022-09-29T02:12:04;56319.94;;;-142.21;100.00
5053;BME280;2545;50.892;5.740;2022-09-29T02:14:38;56319.94;;;-142.21;100.00
5053;BME280;2545;50.892;5.740;2022-09-29T02:17:14;56280.72;;;-142.21;100.00
5053;BME280;2545;50.892;5.740;2022-09-29T02:19:45;56321.91;;;-142.21;100.00
5053;BME280;2545;50.892;5.740;2022-09-29T02:22:11;56316.03;;;-142.21;100.00
5053;BME280;2545;50.892;5.740;2022-09-29T02:24:36;56290.53;;;-142.21;100.00
5053;BME280;2545;50.892;5.740;2022-09-29T02:27:02;56265.03;;;-142.21;100.00
5053;BME280;2545;50.892;5.740;2022-09-29T02:29:28;56333.69;;;-142.21;100.00
5053;BME280;2545;50.892;5.740;2022-09-29T02:31:54;56316.03;;;-142.21;100.00
5053;BME280;2545;50.892;5.740;2022-09-29T02:34:21;56300.34;;;-142.21;100.00
5053;BME280;2545;50.892;5.740;2022-09-29T02:37:13;56263.06;;;-142.21;100.00
5053;BME280;2545;50.892;5.740;2022-09-29T02:39:51;56288.56;;;-142.21;100.00
5053;BME280;2545;50.892;5.740;2022-09-29T02:45:29;56310.13;;;-142.21;100.00
5053;BME280;2545;50.892;5.740;2022-09-29T02:48:14;56312.09;;;-142.21;100.00
5053;BME280;2545;50.892;5.740;2022-09-29T02:51:16;56359.16;;;-142.21;100.00
5053;BME280;2545;50.892;5.740;2022-09-29T02:56:48;56304.25;;;-142.21;100.00
5053;BME280;2545;50.892;5.740;2022-09-29T02:59:29;56325.84;;;-142.21;100.00
5053;BME280;2545;50.892;5.740;2022-09-29T03:01:57;56302.28;;;-142.21;100.00
5053;BME280;2545;50.892;5.740;2022-09-29T03:04:24;56316.03;;;-142.21;100.00
5053;BME280;2545;50.892;5.740;2022-09-29T03:06:51;56314.06;;;-142.21;100.00
5053;BME280;2545;50.892;5.740;2022-09-29T03:09:16;56274.84;;;-142.21;100.00
5053;BME280;2545;50.892;5.740;2022-09-29T03:11:42;56300.34;;;-142.21;100.00
5053;BME280;2545;50.892;5.740;2022-09-29T03:14:07;56341.53;;;-142.21;100.00
5053;BME280;2545;50.892;5.740;2022-09-29T03:16:33;56298.38;;;-142.21;100.00
5053;BME280;2545;50.892;5.740;2022-09-29T03:18:59;56288.56;;;-142.21;100.00
5053;BME280;2545;50.892;5.740;2022-09-29T03:21:25;56310.13;;;-142.21;100.00
5053;BME280;2545;50.892;5.740;2022-09-29T03:23:50;56308.19;;;-142.21;100.00
5053;BME280;2545;50.892;5.740;2022-09-29T03:26:15;56300.34;;;-142.21;100.00
5053;BME280;2545;50.892;5.740;2022-09-29T03:28:41;56314.06;;;-142.21;100.00
5053;BME280;2545;50.892;5.740;2022-09-29T03:31:08;56268.97;;;-142.21;100.00
5053;BME280;2545;50.892;5.740;2022-09-29T03:33:34;56321.91;;;-142.21;100.00
5053;BME280;2545;50.892;5.740;2022-09-29T03:36:01;56321.91;;;-142.21;100.00
5053;BME280;2545;50.892;5.740;2022-09-29T03:38:27;56308.19;;;-142.21;100.00
5053;BME280;2545;50.892;5.740;2022-09-29T03:40:53;56286.63;;;-142.21;100.00
5053;BME280;2545;50.892;5.740;2022-09-29T03:43:18;56280.72;;;-142.21;100.00
5053;BME280;2545;50.892;5.740;2022-09-29T03:45:51;56331.72;;;-142.21;100.00
5053;BME280;2545;50.892;5.740;2022-09-29T03:48:17;56304.25;;;-142.21;100.00
5053;BME280;2545;50.892;5.740;2022-09-29T03:50:47;56294.47;;;-142.21;100.00
5053;BME280;2545;50.892;5.740;2022-09-29T03:53:12;56272.88;;;-142.21;100.00
5053;BME280;2545;50.892;5.740;2022-09-29T03:55:38;56284.66;;;-142.21;100.00
5053;BME280;2545;50.892;5.740;2022-09-29T03:58:03;56316.03;;;-142.21;100.00
5053;BME280;2545;50.892;5.740;2022-09-29T04:00:29;56308.19;;;-142.21;100.00
5053;BME280;2545;50.892;5.740;2022-09-29T04:02:55;56284.66;;;-142.21;100.00
5053;BME280;2545;50.892;5.740;2022-09-29T04:05:20;56327.78;;;-142.21;100.00
5053;BME280;2545;50.892;5.740;2022-09-29T04:07:46;56329.75;;;-142.21;100.00
5053;BME280;2545;50.892;5.740;2022-09-29T04:10:11;56304.25;;;-142.21;100.00
5053;BME280;2545;50.892;5.740;2022-09-29T04:12:36;56267.00;;;-142.21;100.00
5053;BME280;2545;50.892;5.740;2022-09-29T04:15:02;56288.56;;;-142.21;100.00
5053;BME280;2545;50.892;5.740;2022-09-29T04:17:28;56312.09;;;-142.21;100.00
5053;BME280;2545;50.892;5.740;2022-09-29T04:19:53;56296.41;;;-142.21;100.00
5053;BME280;2545;50.892;5.740;2022-09-29T04:22:18;56304.25;;;-142.21;100.00
5053;BME280;2545;50.892;5.740;2022-09-29T04:24:45;56331.72;;;-142.21;100.00
5053;BME280;2545;50.892;5.740;2022-09-29T04:27:12;56257.19;;;-142.21;100.00
5053;BME280;2545;50.892;5.740;2022-09-29T04:29:38;56300.34;;;-142.21;100.00
5053;BME280;2545;50.892;5.740;2022-09-29T04:32:03;56306.22;;;-142.21;100.00
5053;BME280;2545;50.892;5.740;2022-09-29T04:34:30;56300.34;;;-142.21;100.00
5053;BME280;2545;50.892;5.740;2022-09-29T04:36:55;56312.09;;;-142.21;100.00
5053;BME280;2545;50.892;5.740;2022-09-29T04:39:21;56319.94;;;-142.21;100.00
5053;BME280;2545;50.892;5.740;2022-09-29T04:41:46;56286.63;;;-142.21;100.00
5053;BME280;2545;50.892;5.740;2022-09-29T04:44:12;56280.72;;;-142.21;100.00
5053;BME280;2545;50.892;5.740;2022-09-29T04:46:37;56312.09;;;-142.21;100.00
5053;BME280;2545;50.892;5.740;2022-09-29T04:49:02;56294.47;;;-142.21;100.00
5053;BME280;2545;50.892;5.740;2022-09-29T04:51:28;56314.06;;;-142.21;100.00
5053;BME280;2545;50.892;5.740;2022-09-29T04:53:53;56314.06;;;-142.21;100.00
5053;BME280;2545;50.892;5.740;2022-09-29T04:56:18;56316.03;;;-142.21;100.00
5053;BME280;2545;50.892;5.740;2022-09-29T04:58:44;56300.34;;;-142.21;100.00
5053;BME280;2545;50.892;5.740;2022-09-29T05:01:10;56280.72;;;-142.21;100.00
5053;BME280;2545;50.892;5.740;2022-09-29T05:03:39;56298.38;;;-142.21;100.00
5053;BME280;2545;50.892;5.740;2022-09-29T05:06:06;56316.03;;;-142.21;100.00
5053;BME280;2545;50.892;5.740;2022-09-29T05:08:31;56331.72;;;-142.21;100.00
5053;BME280;2545;50.892;5.740;2022-09-29T05:10:56;56321.91;;;-142.21;100.00
5053;BME280;2545;50.892;5.740;2022-09-29T05:13:22;56323.88;;;-142.21;100.00
5053;BME280;2545;50.892;5.740;2022-09-29T05:15:48;56306.22;;;-142.21;100.00
5053;BME280;2545;50.892;5.740;2022-09-29T05:18:14;56284.66;;;-142.21;100.00
5053;BME280;2545;50.892;5.740;2022-09-29T05:20:39;56323.88;;;-142.21;100.00
5053;BME280;2545;50.892;5.740;2022-09-29T05:23:04;56306.22;;;-142.21;100.00
5053;BME280;2545;50.892;5.740;2022-09-29T05:25:34;56288.56;;;-142.21;100.00
5053;BME280;2545;50.892;5.740;2022-09-29T05:28:00;56323.88;;;-142.21;100.00
5053;BME280;2545;50.892;5.740;2022-09-29T05:30:25;56304.25;;;-142.21;100.00
5053;BME280;2545;50.892;5.740;2022-09-29T05:32:51;56294.47;;;-142.21;100.00
5053;BME280;2545;50.892;5.740;2022-09-29T05:35:17;56306.22;;;-142.21;100.00
5053;BME280;2545;50.892;5.740;2022-09-29T05:37:44;56284.66;;;-142.21;100.00
5053;BME280;2545;50.892;5.740;2022-09-29T05:40:10;56359.16;;;-142.21;100.00
5053;BME280;2545;50.892;5.740;2022-09-29T05:42:35;56347.41;;;-142.21;100.00
5053;BME280;2545;50.892;5.740;2022-09-29T05:45:00;56325.84;;;-142.21;100.00
5053;BME280;2545;50.892;5.740;2022-09-29T05:47:26;56343.47;;;-142.21;100.00
5053;BME280;2545;50.892;5.740;2022-09-29T05:49:51;56284.66;;;-142.21;100.00
5053;BME280;2545;50.892;5.740;2022-09-29T05:52:16;56284.66;;;-142.21;100.00
5053;BME280;2545;50.892;5.740;2022-09-29T05:54:42;56263.06;;;-142.21;100.00
5053;BME280;2545;50.892;5.740;2022-09-29T05:57:07;56300.34;;;-142.21;100.00
5053;BME280;2545;50.892;5.740;2022-09-29T05:59:32;56280.72;;;-142.21;100.00
5053;BME280;2545;50.892;5.740;2022-09-29T06:01:58;56280.72;;;-142.21;100.00
5053;BME280;2545;50.892;5.740;2022-09-29T06:04:23;56278.78;;;-142.21;100.00
5053;BME280;2545;50.892;5.740;2022-09-29T06:06:48;56259.16;;;-142.21;100.00
5053;BME280;2545;50.892;5.740;2022-09-29T06:09:14;56304.25;;;-142.21;100.00
5053;BME280;2545;50.892;5.740;2022-09-29T06:11:39;56317.97;;;-142.21;100.00
5053;BME280;2545;50.892;5.740;2022-09-29T06:14:04;56329.75;;;-142.21;100.00
5053;BME280;2545;50.892;5.740;2022-09-29T06:16:31;56302.28;;;-142.21;100.00
5053;BME280;2545;50.892;5.740;2022-09-29T06:18:59;56302.28;;;-142.21;100.00
5053;BME280;2545;50.892;5.740;2022-09-29T06:21:26;56270.91;;;-142.21;100.00
5053;BME280;2545;50.892;5.740;2022-09-29T06:23:56;56321.91;;;-142.21;100.00
5053;BME280;2545;50.892;5.740;2022-09-29T06:26:23;56319.94;;;-142.21;100.00
5053;BME280;2545;50.892;5.740;2022-09-29T06:28:49;56294.47;;;-142.21;100.00
5053;BME280;2545;50.892;5.740;2022-09-29T06:31:17;56323.88;;;-142.21;100.00
5053;BME280;2545;50.892;5.740;2022-09-29T06:33:43;56286.63;;;-142.21;100.00
5053;BME280;2545;50.892;5.740;2022-09-29T06:36:18;56335.63;;;-142.21;100.00
5053;BME280;2545;50.892;5.740;2022-09-29T06:39:04;56316.03;;;-142.21;100.00
5053;BME280;2545;50.892;5.740;2022-09-29T06:41:29;56312.09;;;-142.21;100.00
5053;BME280;2545;50.892;5.740;2022-09-29T06:43:55;56327.78;;;-142.21;100.00
5053;BME280;2545;50.892;5.740;2022-09-29T06:46:20;56331.72;;;-142.21;100.00
5053;BME280;2545;50.892;5.740;2022-09-29T06:48:46;56308.19;;;-142.21;100.00
5053;BME280;2545;50.892;5.740;2022-09-29T06:51:12;56317.97;;;-142.21;100.00
5053;BME280;2545;50.892;5.740;2022-09-29T06:53:38;56357.22;;;-142.21;100.00
5053;BME280;2545;50.892;5.740;2022-09-29T06:56:04;56310.13;;;-142.21;100.00
5053;BME280;2545;50.892;5.740;2022-09-29T06:58:30;56323.88;;;-142.21;100.00
5053;BME280;2545;50.892;5.740;2022-09-29T07:00:59;56288.56;;;-142.21;100.00
5053;BME280;2545;50.892;5.740;2022-09-29T07:03:25;56317.97;;;-142.21;100.00
5053;BME280;2545;50.892;5.740;2022-09-29T07:05:50;56302.28;;;-142.21;100.00
5053;BME280;2545;50.892;5.740;2022-09-29T07:08:15;56286.63;;;-142.21;100.00
5053;BME280;2545;50.892;5.740;2022-09-29T07:10:41;56274.84;;;-142.21;100.00
5053;BME280;2545;50.892;5.740;2022-09-29T07:13:06;56290.53;;;-142.21;100.00
5053;BME280;2545;50.892;5.740;2022-09-29T07:15:33;56298.38;;;-142.21;100.00
5053;BME280;2545;50.892;5.740;2022-09-29T07:17:59;56335.63;;;-142.21;100.00
5053;BME280;2545;50.892;5.740;2022-09-29T07:20:27;56300.34;;;-142.21;100.00
5053;BME280;2545;50.892;5.740;2022-09-29T07:22:52;56312.09;;;-142.21;100.00
5053;BME280;2545;50.892;5.740;2022-09-29T07:25:18;56314.06;;;-142.21;100.00
5053;BME280;2545;50.892;5.740;2022-09-29T07:27:45;56337.59;;;-142.21;100.00
5053;BME280;2545;50.892;5.740;2022-09-29T07:30:10;56357.22;;;-142.21;100.00
5053;BME280;2545;50.892;5.740;2022-09-29T07:32:36;56333.69;;;-142.21;100.00
5053;BME280;2545;50.892;5.740;2022-09-29T07:35:02;56314.06;;;-142.21;100.00
5053;BME280;2545;50.892;5.740;2022-09-29T07:37:27;56306.22;;;-142.21;100.00
5053;BME280;2545;50.892;5.740;2022-09-29T07:39:53;56337.59;;;-142.21;100.00
5053;BME280;2545;50.892;5.740;2022-09-29T07:42:19;56310.13;;;-142.21;100.00
5053;BME280;2545;50.892;5.740;2022-09-29T07:44:46;56308.19;;;-142.21;100.00
5053;BME280;2545;50.892;5.740;2022-09-29T07:47:12;56321.91;;;-142.21;100.00
5053;BME280;2545;50.892;5.740;2022-09-29T07:49:38;56302.28;;;-142.21;100.00
5053;BME280;2545;50.892;5.740;2022-09-29T07:52:04;56302.28;;;-142.21;100.00
5053;BME280;2545;50.892;5.740;2022-09-29T07:54:29;56327.78;;;-142.21;100.00
5053;BME280;2545;50.892;5.740;2022-09-29T07:56:55;56308.19;;;-142.21;100.00
5053;BME280;2545;50.892;5.740;2022-09-29T07:59:20;56341.53;;;-142.21;100.00
5053;BME280;2545;50.892;5.740;2022-09-29T08:01:46;56314.06;;;-142.21;100.00
5053;BME280;2545;50.892;5.740;2022-09-29T08:04:11;56304.25;;;-142.21;100.00
5053;BME280;2545;50.892;5.740;2022-09-29T08:06:37;56343.47;;;-142.21;100.00
5053;BME280;2545;50.892;5.740;2022-09-29T08:09:02;56316.03;;;-142.21;100.00
5053;BME280;2545;50.892;5.740;2022-09-29T08:11:28;56317.97;;;-142.21;100.00
5053;BME280;2545;50.892;5.740;2022-09-29T08:13:53;56327.78;;;-142.21;100.00
5053;BME280;2545;50.892;5.740;2022-09-29T08:16:19;56327.78;;;-142.21;100.00
5053;BME280;2545;50.892;5.740;2022-09-29T08:18:44;56331.72;;;-142.21;100.00
5053;BME280;2545;50.892;5.740;2022-09-29T08:21:11;56304.25;;;-142.21;100.00
5053;BME280;2545;50.892;5.740;2022-09-29T08:23:38;56278.78;;;-142.21;100.00
5053;BME280;2545;50.892;5.740;2022-09-29T08:26:08;56296.41;;;-142.21;100.00
5053;BME280;2545;50.892;5.740;2022-09-29T08:28:36;56325.84;;;-142.21;100.00
5053;BME280;2545;50.892;5.740;2022-09-29T08:31:05;56308.19;;;-142.21;100.00
5053;BME280;2545;50.892;5.740;2022-09-29T08:33:32;56284.66;;;-142.21;100.00
5053;BME280;2545;50.892;5.740;2022-09-29T08:35:57;56284.66;;;-142.21;100.00
5053;BME280;2545;50.892;5.740;2022-09-29T08:38:24;56274.84;;;-142.21;100.00
5053;BME280;2545;50.892;5.740;2022-09-29T08:40:50;56319.94;;;-142.21;100.00
5053;BME280;2545;50.892;5.740;2022-09-29T08:43:20;56284.66;;;-142.21;100.00
5053;BME280;2545;50.892;5.740;2022-09-29T08:45:53;56296.41;;;-142.21;100.00
5053;BME280;2545;50.892;5.740;2022-09-29T08:48:22;56288.56;;;-142.21;100.00
5053;BME280;2545;50.892;5.740;2022-09-29T08:50:56;56286.63;;;-142.21;100.00
5053;BME280;2545;50.892;5.740;2022-09-29T08:53:23;56286.63;;;-142.21;100.00
5053;BME280;2545;50.892;5.740;2022-09-29T08:55:56;56302.28;;;-142.21;94.86
5053;BME280;2545;50.892;5.740;2022-09-29T08:58:22;56290.53;;;-142.21;95.68
5053;BME280;2545;50.892;5.740;2022-09-29T09:01:02;56272.88;;;-142.21;93.03
5053;BME280;2545;50.892;5.740;2022-09-29T09:06:47;56253.28;;;-142.21;96.49
5053;BME280;2545;50.892;5.740;2022-09-29T09:09:33;56288.56;;;-142.21;92.52
5053;BME280;2545;50.892;5.740;2022-09-29T09:20:55;56284.66;;;-142.21;87.33
5053;BME280;2545;50.892;5.740;2022-09-29T09:26:01;56267.00;;;-142.21;84.18
5053;BME280;2545;50.892;5.740;2022-09-29T09:28:32;56192.50;;;-142.21;83.09
5053;BME280;2545;50.892;5.740;2022-09-29T09:31:06;56257.19;;;-142.21;79.61
5053;BME280;2545;50.892;5.740;2022-09-29T09:33:40;56272.88;;;-142.21;77.19
5053;BME280;2545;50.892;5.740;2022-09-29T09:36:15;56251.31;;;-142.21;75.00
5053;BME280;2545;50.892;5.740;2022-09-29T09:38:57;56243.47;;;-142.21;71.70
5053;BME280;2545;50.892;5.740;2022-09-29T09:41:24;56257.19;;;-142.21;64.85
5053;BME280;2545;50.892;5.740;2022-09-29T09:43:56;56241.50;;;-142.21;63.04
5053;BME280;2545;50.892;5.740;2022-09-29T09:49:10;56229.75;;;-142.21;60.36
5053;BME280;2545;50.892;5.740;2022-09-29T09:51:59;56210.13;;;-142.21;53.87
5053;BME280;2545;50.892;5.740;2022-09-29T09:54:52;56170.91;;;-142.21;52.32
5053;BME280;2545;50.892;5.740;2022-09-29T09:57:31;56141.50;;;-142.21;48.88
5053;BME280;2545;50.892;5.740;2022-09-29T10:00:17;56247.38;;;-142.21;47.59
5053;BME280;2545;50.892;5.740;2022-09-29T10:02:51;56192.50;;;-142.21;45.32
5053;BME280;2545;50.892;5.740;2022-09-29T10:05:19;56159.16;;;-142.21;44.98
5053;BME280;2545;50.892;5.740;2022-09-29T10:07:45;56117.97;;;-142.21;42.82
5053;BME280;2545;50.892;5.740;2022-09-29T10:10:24;56157.19;;;-142.21;41.60
5053;BME280;2545;50.892;5.740;2022-09-29T10:13:09;56159.16;;;-142.21;41.03
5053;BME280;2545;50.892;5.740;2022-09-29T10:15:46;56137.59;;;-142.21;38.91
5053;BME280;2545;50.892;5.740;2022-09-29T10:18:38;56145.44;;;-142.21;40.03
5053;BME280;2545;50.892;5.740;2022-09-29T10:23:52;56137.59;;;-142.21;39.26
5053;BME280;2545;50.892;5.740;2022-09-29T10:26:21;56116.00;;;-142.21;38.90
5053;BME280;2545;50.892;5.740;2022-09-29T10:28:52;56086.59;;;-142.21;36.67
5053;BME280;2545;50.892;5.740;2022-09-29T10:33:51;56088.56;;;-142.21;37.57
5053;BME280;2545;50.892;5.740;2022-09-29T10:36:17;56129.75;;;-142.21;38.80
5053;BME280;2545;50.892;5.740;2022-09-29T10:38:47;56116.00;;;-142.21;37.42
5053;BME280;2545;50.892;5.740;2022-09-29T10:41:13;56100.31;;;-142.21;36.62
5053;BME280;2545;50.892;5.740;2022-09-29T10:43:40;56088.56;;;-142.21;35.94
5053;BME280;2545;50.892;5.740;2022-09-29T10:46:46;56170.91;;;-142.21;36.75
5053;BME280;2545;50.892;5.740;2022-09-29T10:49:20;56104.25;;;-142.21;36.21
5053;BME280;2545;50.892;5.740;2022-09-29T10:51:58;56084.63;;;-142.21;34.74
5053;BME280;2545;50.892;5.740;2022-09-29T10:54:26;56092.47;;;-142.21;34.46
5053;BME280;2545;50.892;5.740;2022-09-29T10:56:54;56043.47;;;-142.21;34.40
5053;BME280;2545;50.892;5.740;2022-09-29T10:59:20;56057.19;;;-142.21;33.36
5053;BME280;2545;50.892;5.740;2022-09-29T11:01:50;56068.94;;;-142.21;34.47
5053;BME280;2545;50.892;5.740;2022-09-29T11:04:21;56067.00;;;-142.21;33.86
5053;BME280;2545;50.892;5.740;2022-09-29T11:06:49;56035.63;;;-142.21;33.94
5053;BME280;2545;50.892;5.740;2022-09-29T11:14:28;56090.53;;;-142.21;34.71
5053;BME280;2545;50.892;5.740;2022-09-29T11:16:56;56053.25;;;-142.21;33.90
5053;BME280;2545;50.892;5.740;2022-09-29T11:19:22;56035.63;;;-142.21;32.40
5053;BME280;2545;50.892;5.740;2022-09-29T11:22:15;55988.56;;;-142.21;31.03
5053;BME280;2545;50.892;5.740;2022-09-29T11:24:53;55965.03;;;-142.21;29.93
5053;BME280;2545;50.892;5.740;2022-09-29T11:30:10;55988.56;;;-142.21;28.97
5053;BME280;2545;50.892;5.740;2022-09-29T11:32:46;56025.81;;;-142.21;31.30
5053;BME280;2545;50.892;5.740;2022-09-29T11:35:26;56033.66;;;-142.21;31.66
5053;BME280;2545;50.892;5.740;2022-09-29T11:38:19;55949.34;;;-142.21;29.40
5053;BME280;2545;50.892;5.740;2022-09-29T11:41:03;56002.28;;;-142.21;29.48
5053;BME280;2545;50.892;5.740;2022-09-29T11:43:55;55929.75;;;-142.21;27.96
5053;BME280;2545;50.892;5.740;2022-09-29T12:00:02;56017.97;;;-142.21;29.19
5053;BME280;2545;50.892;5.740;2022-09-29T12:11:24;56051.31;;;-142.21;32.05
5053;BME280;2545;50.892;5.740;2022-09-29T12:16:32;56063.06;;;-142.21;31.06
5053;BME280;2545;50.892;5.740;2022-09-29T12:19:05;56088.56;;;-142.21;32.56
5053;BME280;2545;50.892;5.740;2022-09-29T12:21:36;56078.75;;;-142.21;32.65
5053;BME280;2545;50.892;5.740;2022-09-29T12:24:06;56096.41;;;-142.21;33.62
5053;BME280;2545;50.892;5.740;2022-09-29T12:26:36;56106.22;;;-142.21;34.37
5053;BME280;2545;50.892;5.740;2022-09-29T12:29:39;56127.78;;;-142.21;34.95
5053;BME280;2545;50.892;5.740;2022-09-29T12:32:28;56110.13;;;-142.21;33.01
5053;BME280;2545;50.892;5.740;2022-09-29T12:35:03;56080.72;;;-142.21;30.16
5053;BME280;2545;50.892;5.740;2022-09-29T12:37:39;56045.41;;;-142.21;28.70
5053;BME280;2545;50.892;5.740;2022-09-29T12:40:18;56057.19;;;-142.21;30.32
5053;BME280;2545;50.892;5.740;2022-09-29T12:43:03;56057.19;;;-142.21;30.13
5053;BME280;2545;50.892;5.740;2022-09-29T12:45:42;56090.53;;;-142.21;32.28
5053;BME280;2545;50.892;5.740;2022-09-29T12:51:24;56106.22;;;-142.21;34.98
5053;BME280;2545;50.892;5.740;2022-09-29T12:56:27;56139.53;;;-142.21;36.19
5053;BME280;2545;50.892;5.740;2022-09-29T12:58:59;56137.59;;;-142.21;36.03
5053;BME280;2545;50.892;5.740;2022-09-29T13:01:30;56127.78;;;-142.21;36.92
5053;BME280;2545;50.892;5.740;2022-09-29T13:04:14;56157.19;;;-142.21;37.67
5053;BME280;2545;50.892;5.740;2022-09-29T13:10:03;56116.00;;;-142.21;32.77
5053;BME280;2545;50.892;5.740;2022-09-29T13:21:09;55955.22;;;-142.21;26.55
5053;BME280;2545;50.892;5.740;2022-09-29T13:24:06;55945.41;;;-142.21;26.07
5053;BME280;2545;50.892;5.740;2022-09-29T13:26:46;55912.09;;;-142.21;24.86
5053;BME280;2545;50.892;5.740;2022-09-29T13:29:19;55937.56;;;-142.21;24.79
5053;BME280;2545;50.892;5.740;2022-09-29T13:31:47;55945.41;;;-142.21;25.11
5053;BME280;2545;50.892;5.740;2022-09-29T13:36:50;56016.00;;;-142.21;26.51
5053;BME280;2545;50.892;5.740;2022-09-29T13:39:22;55986.59;;;-142.21;26.19
5053;BME280;2545;50.892;5.740;2022-09-29T13:41:54;55996.41;;;-142.21;27.90
5053;BME280;2545;50.892;5.740;2022-09-29T13:44:24;56021.88;;;-142.21;27.74
5053;BME280;2545;50.892;5.740;2022-09-29T13:46:50;56049.34;;;-142.21;28.84
5053;BME280;2545;50.892;5.740;2022-09-29T13:49:25;56019.94;;;-142.21;27.54
5053;BME280;2545;50.892;5.740;2022-09-29T13:54:46;56002.28;;;-142.21;26.62
5053;BME280;2545;50.892;5.740;2022-09-29T14:00:00;56017.97;;;-142.21;28.29
5053;BME280;2545;50.892;5.740;2022-09-29T14:02:35;56049.34;;;-142.21;29.64
5053;BME280;2545;50.892;5.740;2022-09-29T14:05:03;56057.19;;;-142.21;30.08
5053;BME280;2545;50.892;5.740;2022-09-29T14:08:26;56059.16;;;-142.21;30.27
5053;BME280;2545;50.892;5.740;2022-09-29T14:11:01;56053.25;;;-142.21;29.15
5053;BME280;2545;50.892;5.740;2022-09-29T14:13:57;56068.94;;;-142.21;29.50
5053;BME280;2545;50.892;5.740;2022-09-29T14:16:46;56025.81;;;-142.21;30.08
5053;BME280;2545;50.892;5.740;2022-09-29T14:27:59;56006.22;;;-142.21;30.03
5053;BME280;2545;50.892;5.740;2022-09-29T14:33:03;56031.69;;;-142.21;29.66
5053;BME280;2545;50.892;5.740;2022-09-29T14:38:19;56035.63;;;-142.21;27.92
5053;BME280;2545;50.892;5.740;2022-09-29T14:43:41;55949.34;;;-142.21;26.65
5053;BME280;2545;50.892;5.740;2022-09-29T14:55:14;55917.97;;;-142.21;25.44
5053;BME280;2545;50.892;5.740;2022-09-29T15:00:20;55865.03;;;-142.21;22.94
5053;BME280;2545;50.892;5.740;2022-09-29T15:02:52;55919.94;;;-142.21;24.13
5053;BME280;2545;50.892;5.740;2022-09-29T15:05:31;55855.22;;;-142.21;24.32
5053;BME280;2545;50.892;5.740;2022-09-29T15:07:58;55894.44;;;-142.21;24.53
5053;BME280;2545;50.892;5.740;2022-09-29T15:10:30;55933.66;;;-142.21;25.04
5053;BME280;2545;50.892;5.740;2022-09-29T15:15:40;55967.00;;;-142.21;26.90
5053;BME280;2545;50.892;5.740;2022-09-29T15:18:35;55998.38;;;-142.21;27.04
5053;BME280;2545;50.892;5.740;2022-09-29T15:21:14;56016.00;;;-142.21;28.03
5053;BME280;2545;50.892;5.740;2022-09-29T15:24:05;55990.53;;;-142.21;30.85
5053;BME280;2545;50.892;5.740;2022-09-29T15:26:40;56086.59;;;-142.21;33.20